Olympia, Kentucky
Current Conditions -  °F | °C
As of 11:30 AM on Wednesday 22 Oct 2014 (Local Time) from KSYM Reporting Station
Overcast Overcast  
Wind Chill: 48°   Ceiling: 1900
Heat Index: 48°   Visibility: 10mi
Dew Point: 41°   Wind: 3mph
Humidity: 76%   Direction: 270°W
Pressure: 30.29"   Gusts: NA
Location:  38.1°N, 83.7°W
Report Text: KSYM 221530Z AUTO 27003KT 10SM BKN019 OVC023 09/05 A3029 RMK AO2
Loading
Personal Weather Stations






























Interactive Weather Map
Tropical Storm Tracking
New forecast layout! Learn more

10-Day Weather Forecast

Advertisements
Track Severe Weather on mobile